Time;durP1;ratioP1;P1;durP2;ratioP2;P2;SDS_P1;SDS_P2;PMS_P1;PMS_P2;Temp;Humidity;BMP_temperature;BMP_pressure;BME280_temperature;BME280_humidity;BME280_pressure;Samples;Min_cycle;Max_cycle;Signal;HPM_P1;HPM_P2
2023/01/23 00:03:57;;;;;;;15.8;8.9;;;;;;;2;89.2;100180;;;;
2023/01/23 00:14:57;;;;;;;15.8;8.9;;;;;;;2.1;89.1;100190;;;;
2023/01/23 00:24:57;;;;;;;16.1;7.6;;;;;;;2.2;89.2;100210;;;;
2023/01/23 00:34:57;;;;;;;16.1;7.6;;;;;;;2.2;89.2;100220;;;;
2023/01/23 00:44:57;;;;;;;16.1;7.6;;;;;;;2.4;89.1;100220;;;;
2023/01/23 00:54:57;;;;;;;13.7;7.7;;;;;;;2.4;88.8;100230;;;;
2023/01/23 01:05:57;;;;;;;13.7;7.7;;;;;;;2.4;88.7;100240;;;;
2023/01/23 01:16:57;;;;;;;13.7;7.7;;;;;;;2.5;88.6;100240;;;;
2023/01/23 01:26:57;;;;;;;19.8;10.2;;;;;;;2.4;88.4;100250;;;;
2023/01/23 01:37:59;;;;;;;19.8;10.2;;;;;;;2.4;88.5;100260;;;;
2023/01/23 01:48:57;;;;;;;19.8;10.2;;;;;;;2.4;88.5;100240;;;;
2023/01/23 01:58:57;;;;;;;18.8;9.3;;;;;;;2.3;88.5;100250;;;;
2023/01/23 02:08:57;;;;;;;18.8;9.3;;;;;;;2.2;88.6;100250;;;;
2023/01/23 02:19:58;;;;;;;18.8;9.3;;;;;;;2.2;88.7;100260;;;;
2023/01/23 02:29:57;;;;;;;14.3;9.2;;;;;;;2.4;88.8;100260;;;;
2023/01/23 02:40:57;;;;;;;14.3;9.2;;;;;;;2.3;88.5;100260;;;;
2023/01/23 02:51:57;;;;;;;18.3;9.5;;;;;;;2.3;88.6;100270;;;;
2023/01/23 03:01:57;;;;;;;18.3;9.5;;;;;;;2.3;88.6;100280;;;;
2023/01/23 03:11:57;;;;;;;18.3;9.5;;;;;;;2.4;88.7;100280;;;;
2023/01/23 03:22:57;;;;;;;18.2;10.1;;;;;;;2.2;88.4;100280;;;;
2023/01/23 03:32:57;;;;;;;18.2;10.1;;;;;;;2.4;88.7;100290;;;;
2023/01/23 03:43:57;;;;;;;18.2;10.1;;;;;;;2.4;88.7;100300;;;;
2023/01/23 03:53:57;;;;;;;19.2;10.3;;;;;;;2.5;88.5;100300;;;;
2023/01/23 04:03:57;;;;;;;19.2;10.3;;;;;;;2.5;88.4;100310;;;;
2023/01/23 04:13:57;;;;;;;19.2;10.3;;;;;;;2.4;88.3;100320;;;;
2023/01/23 04:24:57;;;;;;;28.1;12.5;;;;;;;2.3;88.4;100330;;;;
2023/01/23 04:35:57;;;;;;;28.1;12.5;;;;;;;2.4;88.4;100340;;;;
2023/01/23 04:45:57;;;;;;;28.1;12.5;;;;;;;2.4;88.4;100340;;;;
2023/01/23 04:56:57;;;;;;;15.8;8.6;;;;;;;2.4;88.3;100330;;;;
2023/01/23 05:07:57;;;;;;;15.8;8.6;;;;;;;2.4;88.3;100340;;;;
2023/01/23 05:18:57;;;;;;;15.8;8.6;;;;;;;2.3;88.4;100340;;;;
2023/01/23 05:28:57;;;;;;;21.6;10.5;;;;;;;2.3;88.5;100350;;;;
2023/01/23 05:39:57;;;;;;;21.6;10.5;;;;;;;2.4;88.6;100370;;;;
2023/01/23 05:49:57;;;;;;;21.6;10.5;;;;;;;2.3;88.7;100370;;;;
2023/01/23 06:00:57;;;;;;;15.2;8.4;;;;;;;2.4;88.7;100390;;;;
2023/01/23 06:10:57;;;;;;;15.2;8.4;;;;;;;2.5;88.7;100400;;;;
2023/01/23 06:20:57;;;;;;;15.2;8.4;;;;;;;2.5;88.5;100410;;;;
2023/01/23 06:30:57;;;;;;;18.7;11.1;;;;;;;2.4;88.5;100420;;;;
2023/01/23 06:41:57;;;;;;;18.7;11.1;;;;;;;2.5;88.6;100420;;;;
2023/01/23 06:51:57;;;;;;;17.2;8.7;;;;;;;2.5;88.6;100430;;;;
2023/01/23 07:02:58;;;;;;;17.2;8.7;;;;;;;2.5;88.6;100430;;;;
2023/01/23 07:13:57;;;;;;;17.2;8.7;;;;;;;2.6;88.8;100430;;;;
2023/01/23 07:23:57;;;;;;;20.7;12.4;;;;;;;2.8;88.8;100440;;;;
2023/01/23 07:33:57;;;;;;;20.7;12.4;;;;;;;2.8;88.7;100460;;;;
2023/01/23 07:43:57;;;;;;;20.7;12.4;;;;;;;2.8;88.8;100460;;;;
2023/01/23 07:54:57;;;;;;;24.3;14.3;;;;;;;2.8;88.8;100470;;;;
2023/01/23 08:04:57;;;;;;;24.3;14.3;;;;;;;3;88.9;100480;;;;
2023/01/23 08:14:57;;;;;;;24.3;14.3;;;;;;;3;88.7;100490;;;;
2023/01/23 08:25:57;;;;;;;20.3;12;;;;;;;3.1;88.7;100490;;;;
2023/01/23 08:36:57;;;;;;;20.3;12;;;;;;;3.2;88.7;100500;;;;
2023/01/23 08:46:57;;;;;;;20.3;12;;;;;;;3.1;88.5;100510;;;;
2023/01/23 08:57:58;;;;;;;17.8;11.3;;;;;;;3.1;88.4;100520;;;;
2023/01/23 09:07:57;;;;;;;17.8;11.3;;;;;;;3.1;88.6;100520;;;;
2023/01/23 09:18:57;;;;;;;17.8;11.3;;;;;;;3.3;88.6;100490;;;;
2023/01/23 09:29:57;;;;;;;18.4;11.1;;;;;;;3.5;88.3;100490;;;;
2023/01/23 09:39:57;;;;;;;18.4;11.1;;;;;;;3.6;88.2;100490;;;;
2023/01/23 09:50:57;;;;;;;20.6;13.9;;;;;;;4;87.9;100490;;;;
2023/01/23 10:01:57;;;;;;;20.6;13.9;;;;;;;4;87.3;100500;;;;
2023/01/23 10:11:57;;;;;;;20.6;13.9;;;;;;;4.2;86.6;100500;;;;
2023/01/23 10:22:57;;;;;;;22.3;15.7;;;;;;;4.6;86.2;100490;;;;
2023/01/23 10:33:57;;;;;;;22.3;15.7;;;;;;;5;85.2;100490;;;;
2023/01/23 10:43:57;;;;;;;22.3;15.7;;;;;;;4.9;84.4;100480;;;;
2023/01/23 10:53:57;;;;;;;23.4;15.2;;;;;;;5;83.8;100480;;;;
2023/01/23 11:04:57;;;;;;;23.4;15.2;;;;;;;5;83.3;100470;;;;
2023/01/23 11:15:57;;;;;;;23.4;15.2;;;;;;;5.1;83.7;100460;;;;
2023/01/23 11:26:57;;;;;;;21.1;16.9;;;;;;;4.9;83.2;100450;;;;
2023/01/23 11:36:57;;;;;;;21.1;16.9;;;;;;;4.9;83.5;100450;;;;
2023/01/23 11:47:57;;;;;;;21.1;16.9;;;;;;;5;83.8;100440;;;;
2023/01/23 11:57:57;;;;;;;22.2;15.6;;;;;;;5.2;83.7;100440;;;;
2023/01/23 12:07:57;;;;;;;22.2;15.6;;;;;;;5.1;83.4;100430;;;;
2023/01/23 12:18:57;;;;;;;22.2;15.6;;;;;;;5.1;83.4;100430;;;;
2023/01/23 12:29:57;;;;;;;24.8;17.3;;;;;;;5.2;83.4;100430;;;;
2023/01/23 12:40:57;;;;;;;24.8;17.3;;;;;;;5.2;83.4;100430;;;;
2023/01/23 12:51:57;;;;;;;16.9;14.1;;;;;;;5;83.1;100430;;;;
2023/01/23 13:01:57;;;;;;;16.9;14.1;;;;;;;4.9;83.7;100440;;;;
2023/01/23 13:11:57;;;;;;;16.9;14.1;;;;;;;4.9;84.1;100440;;;;
2023/01/23 13:22:57;;;;;;;18.3;14.5;;;;;;;4.7;84;100440;;;;
2023/01/23 13:33:57;;;;;;;18.3;14.5;;;;;;;4.5;84.4;100450;;;;
2023/01/23 13:44:58;;;;;;;18.3;14.5;;;;;;;4.4;85;100450;;;;
2023/01/23 14:05:57;;;;;;;21.3;12.3;;;;;;;4;86.1;100460;;;;
2023/01/23 14:16:13;;;;;;;21.3;12.3;;;;;;;3.8;87;100460;;;;
2023/01/23 14:25:57;;;;;;;20.9;12;;;;;;;3.6;88;100460;;;;
2023/01/23 14:36:57;;;;;;;20.9;12;;;;;;;3.5;88.2;100460;;;;
2023/01/23 14:47:57;;;;;;;20.9;12;;;;;;;3.4;88.3;100460;;;;
2023/01/23 14:57:57;;;;;;;26.3;15.4;;;;;;;3.3;88.8;100460;;;;
2023/01/23 15:07:57;;;;;;;26.3;15.4;;;;;;;3.1;89.4;100460;;;;
2023/01/23 15:18:57;;;;;;;26.3;15.4;;;;;;;3.1;89.8;100460;;;;
2023/01/23 15:28:59;;;;;;;24.6;14.4;;;;;;;2.9;90.2;100470;;;;
2023/01/23 15:39:59;;;;;;;24.6;14.4;;;;;;;2.9;90.8;100480;;;;
2023/01/23 15:50:00;;;;;;;22.1;12.1;;;;;;;2.8;91.2;100480;;;;
2023/01/23 16:00:57;;;;;;;22.1;12.1;;;;;;;2.7;91.6;100480;;;;
2023/01/23 16:10:57;;;;;;;22.1;12.1;;;;;;;2.6;91.9;100490;;;;
2023/01/23 16:21:57;;;;;;;23;15.2;;;;;;;2.6;92.1;100500;;;;
2023/01/23 16:31:57;;;;;;;23;15.2;;;;;;;2.6;92.2;100500;;;;
2023/01/23 16:41:57;;;;;;;23;15.2;;;;;;;2.6;92.1;100510;;;;
2023/01/23 16:52:57;;;;;;;23.2;13.8;;;;;;;2.6;92.2;100510;;;;
2023/01/23 17:03:57;;;;;;;23.2;13.8;;;;;;;2.6;92.4;100510;;;;
2023/01/23 17:13:57;;;;;;;23.2;13.8;;;;;;;2.7;92.4;100510;;;;
2023/01/23 17:23:57;;;;;;;19.7;13.1;;;;;;;2.6;92.4;100510;;;;
2023/01/23 17:34:57;;;;;;;19.7;13.1;;;;;;;2.6;92.4;100510;;;;
2023/01/23 17:44:57;;;;;;;19.7;13.1;;;;;;;2.5;92.6;100520;;;;
2023/01/23 17:55:57;;;;;;;19.7;12.8;;;;;;;2.6;92.6;100520;;;;
2023/01/23 18:05:57;;;;;;;19.7;12.8;;;;;;;2.5;92.6;100530;;;;
2023/01/23 18:16:57;;;;;;;19.7;12.8;;;;;;;2.5;92.8;100530;;;;
2023/01/23 18:26:57;;;;;;;23.1;14;;;;;;;2.5;92.8;100530;;;;
2023/01/23 18:37:57;;;;;;;23.1;14;;;;;;;2.6;92.7;100540;;;;
2023/01/23 18:48:57;;;;;;;23.1;14;;;;;;;2.6;92.6;100540;;;;
2023/01/23 18:58:57;;;;;;;23.7;14.6;;;;;;;2.5;92.6;100540;;;;
2023/01/23 19:08:57;;;;;;;23.7;14.6;;;;;;;2.5;92.7;100540;;;;
2023/01/23 19:19:58;;;;;;;26.8;15.9;;;;;;;2.4;92.9;100540;;;;
2023/01/23 19:30:57;;;;;;;26.8;15.9;;;;;;;2.5;93;100550;;;;
2023/01/23 19:40:57;;;;;;;26.8;15.9;;;;;;;2.4;93;100550;;;;
2023/01/23 19:50:58;;;;;;;22.6;15.3;;;;;;;2.4;93.1;100550;;;;
2023/01/23 20:01:57;;;;;;;22.6;15.3;;;;;;;2.3;93.3;100550;;;;
2023/01/23 20:11:58;;;;;;;22.6;15.3;;;;;;;2.3;93.4;100560;;;;
2023/01/23 20:22:58;;;;;;;28.2;16.5;;;;;;;2.3;93.5;100560;;;;
2023/01/23 20:33:58;;;;;;;28.2;16.5;;;;;;;2.3;93.4;100560;;;;
2023/01/23 20:43:57;;;;;;;28.2;16.5;;;;;;;2.4;93.4;100560;;;;
2023/01/23 20:54:57;;;;;;;25.9;15.1;;;;;;;2.4;93.4;100560;;;;
2023/01/23 21:04:57;;;;;;;25.9;15.1;;;;;;;2.5;93.4;100580;;;;
2023/01/23 21:14:59;;;;;;;25.9;15.1;;;;;;;2.4;93.5;100580;;;;
2023/01/23 21:24:57;;;;;;;27.3;15.4;;;;;;;2.4;93.4;100580;;;;
2023/01/23 21:35:57;;;;;;;27.3;15.4;;;;;;;2.5;93.4;100580;;;;
2023/01/23 21:45:57;;;;;;;27.3;15.4;;;;;;;2.5;93.4;100580;;;;
2023/01/23 21:56:57;;;;;;;24.6;13.7;;;;;;;2.4;93.4;100580;;;;
2023/01/23 22:06:57;;;;;;;24.6;13.7;;;;;;;2.4;93.5;100580;;;;
2023/01/23 22:17:57;;;;;;;24.6;13.7;;;;;;;2.3;93.6;100570;;;;
2023/01/23 22:27:57;;;;;;;23.3;13.8;;;;;;;2.3;93.7;100570;;;;
2023/01/23 22:37:57;;;;;;;23.3;13.8;;;;;;;2.4;93.8;100570;;;;
2023/01/23 22:47:57;;;;;;;23.3;13.8;;;;;;;2.4;93.7;100570;;;;
2023/01/23 22:58:59;;;;;;;25.1;14.3;;;;;;;2.4;93.6;100580;;;;
2023/01/23 23:09:57;;;;;;;25.1;14.3;;;;;;;2.4;93.6;100580;;;;
2023/01/23 23:19:57;;;;;;;33.3;16.6;;;;;;;2.3;93.5;100580;;;;
2023/01/23 23:30:57;;;;;;;33.3;16.6;;;;;;;2.4;93.5;100570;;;;
2023/01/23 23:40:57;;;;;;;33.3;16.6;;;;;;;2.4;93.4;100570;;;;
2023/01/23 23:50:57;;;;;;;33.6;19.1;;;;;;;2.3;93.5;100570;;;;
